sensor_id;sensor_type;location;lat;lon;timestamp;pressure;altitude;pressure_sealevel;temperature;humidity
4133;BME280;2080;51.038;7.008;2023-02-25T00:00:12;76308.69;;;-142.53;100.00
4133;BME280;2080;51.038;7.008;2023-02-25T00:02:44;76322.28;;;-142.53;100.00
4133;BME280;2080;51.038;7.008;2023-02-25T00:05:12;76300.91;;;-142.53;100.00
4133;BME280;2080;51.038;7.008;2023-02-25T00:07:38;76285.38;;;-142.53;100.00
4133;BME280;2080;51.038;7.008;2023-02-25T00:10:05;76300.91;;;-142.53;100.00
4133;BME280;2080;51.038;7.008;2023-02-25T00:12:31;76302.88;;;-142.53;100.00
4133;BME280;2080;51.038;7.008;2023-02-25T00:14:56;76304.81;;;-142.53;100.00
4133;BME280;2080;51.038;7.008;2023-02-25T00:17:22;76308.69;;;-142.53;100.00
4133;BME280;2080;51.038;7.008;2023-02-25T00:19:47;76316.47;;;-142.53;100.00
4133;BME280;2080;51.038;7.008;2023-02-25T00:22:13;76320.34;;;-142.53;100.00
4133;BME280;2080;51.038;7.008;2023-02-25T00:24:38;76312.56;;;-142.53;100.00
4133;BME280;2080;51.038;7.008;2023-02-25T00:27:04;76337.81;;;-142.53;100.00
4133;BME280;2080;51.038;7.008;2023-02-25T00:29:30;76320.34;;;-142.53;100.00
4133;BME280;2080;51.038;7.008;2023-02-25T00:31:55;76312.56;;;-142.53;100.00
4133;BME280;2080;51.038;7.008;2023-02-25T00:34:21;76324.22;;;-142.53;100.00
4133;BME280;2080;51.038;7.008;2023-02-25T00:36:46;76320.34;;;-142.53;100.00
4133;BME280;2080;51.038;7.008;2023-02-25T00:39:14;76328.13;;;-142.53;100.00
4133;BME280;2080;51.038;7.008;2023-02-25T00:41:40;76335.88;;;-142.53;100.00
4133;BME280;2080;51.038;7.008;2023-02-25T00:44:09;76324.22;;;-142.53;100.00
4133;BME280;2080;51.038;7.008;2023-02-25T00:46:34;76316.47;;;-142.53;100.00
4133;BME280;2080;51.038;7.008;2023-02-25T00:49:00;76328.13;;;-142.53;100.00
4133;BME280;2080;51.038;7.008;2023-02-25T00:51:29;76322.28;;;-142.53;100.00
4133;BME280;2080;51.038;7.008;2023-02-25T00:53:57;76332.00;;;-142.53;100.00
4133;BME280;2080;51.038;7.008;2023-02-25T00:56:24;76335.88;;;-142.53;100.00
4133;BME280;2080;51.038;7.008;2023-02-25T00:58:51;76328.13;;;-142.53;100.00
4133;BME280;2080;51.038;7.008;2023-02-25T01:03:48;76320.34;;;-142.53;100.00
4133;BME280;2080;51.038;7.008;2023-02-25T01:06:16;76310.63;;;-142.53;100.00
4133;BME280;2080;51.038;7.008;2023-02-25T01:08:43;76328.13;;;-142.53;100.00
4133;BME280;2080;51.038;7.008;2023-02-25T01:11:14;76316.47;;;-142.53;100.00
4133;BME280;2080;51.038;7.008;2023-02-25T01:13:40;76328.13;;;-142.53;100.00
4133;BME280;2080;51.038;7.008;2023-02-25T01:16:15;76339.75;;;-142.53;100.00
4133;BME280;2080;51.038;7.008;2023-02-25T01:18:41;76328.13;;;-142.53;100.00
4133;BME280;2080;51.038;7.008;2023-02-25T01:21:17;76318.41;;;-142.53;100.00
4133;BME280;2080;51.038;7.008;2023-02-25T01:23:47;76320.34;;;-142.53;100.00
4133;BME280;2080;51.038;7.008;2023-02-25T01:26:14;76332.00;;;-142.53;100.00
4133;BME280;2080;51.038;7.008;2023-02-25T01:28:40;76326.16;;;-142.53;100.00
4133;BME280;2080;51.038;7.008;2023-02-25T01:31:06;76351.41;;;-142.53;100.00
4133;BME280;2080;51.038;7.008;2023-02-25T01:33:35;76314.50;;;-142.53;100.00
4133;BME280;2080;51.038;7.008;2023-02-25T01:36:05;76324.22;;;-142.53;100.00
4133;BME280;2080;51.038;7.008;2023-02-25T01:38:35;76326.16;;;-142.53;100.00
4133;BME280;2080;51.038;7.008;2023-02-25T01:41:01;76335.88;;;-142.53;100.00
4133;BME280;2080;51.038;7.008;2023-02-25T01:43:27;76351.41;;;-142.53;100.00
4133;BME280;2080;51.038;7.008;2023-02-25T01:45:54;76355.31;;;-142.53;100.00
4133;BME280;2080;51.038;7.008;2023-02-25T01:48:22;76351.41;;;-142.53;100.00
4133;BME280;2080;51.038;7.008;2023-02-25T01:50:56;76339.75;;;-142.53;100.00
4133;BME280;2080;51.038;7.008;2023-02-25T01:53:28;76351.41;;;-142.53;100.00
4133;BME280;2080;51.038;7.008;2023-02-25T01:55:56;76355.31;;;-142.53;100.00
4133;BME280;2080;51.038;7.008;2023-02-25T01:58:24;76355.31;;;-142.53;100.00
4133;BME280;2080;51.038;7.008;2023-02-25T02:00:50;76339.75;;;-142.53;100.00
4133;BME280;2080;51.038;7.008;2023-02-25T02:03:21;76351.41;;;-142.53;100.00
4133;BME280;2080;51.038;7.008;2023-02-25T02:08:23;76363.06;;;-142.53;100.00
4133;BME280;2080;51.038;7.008;2023-02-25T02:10:51;76335.88;;;-142.53;100.00
4133;BME280;2080;51.038;7.008;2023-02-25T02:13:17;76347.53;;;-142.53;100.00
4133;BME280;2080;51.038;7.008;2023-02-25T02:15:51;76339.75;;;-142.53;100.00
4133;BME280;2080;51.038;7.008;2023-02-25T02:18:19;76374.72;;;-142.53;100.00
4133;BME280;2080;51.038;7.008;2023-02-25T02:21:04;76341.72;;;-142.53;100.00
4133;BME280;2080;51.038;7.008;2023-02-25T02:31:58;76359.19;;;-142.53;100.00
4133;BME280;2080;51.038;7.008;2023-02-25T02:39:50;76390.28;;;-142.53;100.00
4133;BME280;2080;51.038;7.008;2023-02-25T02:45:16;76366.97;;;-142.53;100.00
4133;BME280;2080;51.038;7.008;2023-02-25T02:47:42;76378.63;;;-142.53;100.00
4133;BME280;2080;51.038;7.008;2023-02-25T02:50:18;76374.72;;;-142.53;100.00
4133;BME280;2080;51.038;7.008;2023-02-25T02:52:51;76347.53;;;-142.53;100.00
4133;BME280;2080;51.038;7.008;2023-02-25T02:55:23;76355.31;;;-142.53;100.00
4133;BME280;2080;51.038;7.008;2023-02-25T02:57:54;76343.66;;;-142.53;100.00
4133;BME280;2080;51.038;7.008;2023-02-25T03:00:26;76332.00;;;-142.53;100.00
4133;BME280;2080;51.038;7.008;2023-02-25T03:03:20;76339.75;;;-142.53;100.00
4133;BME280;2080;51.038;7.008;2023-02-25T03:05:49;76359.19;;;-142.53;100.00
4133;BME280;2080;51.038;7.008;2023-02-25T03:08:19;76372.78;;;-142.53;100.00
4133;BME280;2080;51.038;7.008;2023-02-25T03:10:47;76366.97;;;-142.53;100.00
4133;BME280;2080;51.038;7.008;2023-02-25T03:13:14;76363.06;;;-142.53;100.00
4133;BME280;2080;51.038;7.008;2023-02-25T03:15:39;76374.72;;;-142.53;100.00
4133;BME280;2080;51.038;7.008;2023-02-25T03:18:36;76347.53;;;-142.53;100.00
4133;BME280;2080;51.038;7.008;2023-02-25T03:21:14;76359.19;;;-142.53;100.00
4133;BME280;2080;51.038;7.008;2023-02-25T03:23:44;76376.66;;;-142.53;100.00
4133;BME280;2080;51.038;7.008;2023-02-25T03:26:17;76366.97;;;-142.53;100.00
4133;BME280;2080;51.038;7.008;2023-02-25T03:28:48;76363.06;;;-142.53;100.00
4133;BME280;2080;51.038;7.008;2023-02-25T03:33:45;76363.06;;;-142.53;100.00
4133;BME280;2080;51.038;7.008;2023-02-25T03:36:26;76363.06;;;-142.53;100.00
4133;BME280;2080;51.038;7.008;2023-02-25T03:38:58;76378.63;;;-142.53;100.00
4133;BME280;2080;51.038;7.008;2023-02-25T03:41:31;76394.16;;;-142.53;100.00
4133;BME280;2080;51.038;7.008;2023-02-25T03:44:04;76390.28;;;-142.53;100.00
4133;BME280;2080;51.038;7.008;2023-02-25T03:46:33;76378.63;;;-142.53;100.00
4133;BME280;2080;51.038;7.008;2023-02-25T03:49:03;76384.44;;;-142.53;100.00
4133;BME280;2080;51.038;7.008;2023-02-25T03:51:35;76380.56;;;-142.53;100.00
4133;BME280;2080;51.038;7.008;2023-02-25T03:54:06;76378.63;;;-142.53;100.00
4133;BME280;2080;51.038;7.008;2023-02-25T03:56:52;76368.91;;;-142.53;100.00
4133;BME280;2080;51.038;7.008;2023-02-25T03:59:22;76382.50;;;-142.53;100.00
4133;BME280;2080;51.038;7.008;2023-02-25T04:01:55;76388.31;;;-142.53;100.00
4133;BME280;2080;51.038;7.008;2023-02-25T04:04:24;76392.22;;;-142.53;100.00
4133;BME280;2080;51.038;7.008;2023-02-25T04:06:51;76394.16;;;-142.53;100.00
4133;BME280;2080;51.038;7.008;2023-02-25T04:09:18;76394.16;;;-142.53;100.00
4133;BME280;2080;51.038;7.008;2023-02-25T04:11:44;76380.56;;;-142.53;100.00
4133;BME280;2080;51.038;7.008;2023-02-25T04:14:09;76378.63;;;-142.53;100.00
4133;BME280;2080;51.038;7.008;2023-02-25T04:16:36;76394.16;;;-142.53;100.00
4133;BME280;2080;51.038;7.008;2023-02-25T04:19:01;76390.28;;;-142.53;100.00
4133;BME280;2080;51.038;7.008;2023-02-25T04:21:34;76388.31;;;-142.53;100.00
4133;BME280;2080;51.038;7.008;2023-02-25T04:24:01;76398.03;;;-142.53;100.00
4133;BME280;2080;51.038;7.008;2023-02-25T04:26:28;76398.03;;;-142.53;100.00
4133;BME280;2080;51.038;7.008;2023-02-25T04:28:53;76394.16;;;-142.53;100.00
4133;BME280;2080;51.038;7.008;2023-02-25T04:31:19;76409.69;;;-142.53;100.00
4133;BME280;2080;51.038;7.008;2023-02-25T04:33:46;76394.16;;;-142.53;100.00
4133;BME280;2080;51.038;7.008;2023-02-25T04:36:31;76398.03;;;-142.53;100.00
4133;BME280;2080;51.038;7.008;2023-02-25T04:38:59;76413.56;;;-142.53;100.00
4133;BME280;2080;51.038;7.008;2023-02-25T04:41:28;76417.47;;;-142.53;100.00
4133;BME280;2080;51.038;7.008;2023-02-25T04:43:54;76403.88;;;-142.53;100.00
4133;BME280;2080;51.038;7.008;2023-02-25T04:46:19;76419.41;;;-142.53;100.00
4133;BME280;2080;51.038;7.008;2023-02-25T04:48:46;76394.16;;;-142.53;100.00
4133;BME280;2080;51.038;7.008;2023-02-25T04:51:11;76413.56;;;-142.53;100.00
4133;BME280;2080;51.038;7.008;2023-02-25T04:53:40;76405.81;;;-142.53;100.00
4133;BME280;2080;51.038;7.008;2023-02-25T04:56:07;76401.91;;;-142.53;100.00
4133;BME280;2080;51.038;7.008;2023-02-25T04:58:34;76394.16;;;-142.53;100.00
4133;BME280;2080;51.038;7.008;2023-02-25T05:01:02;76378.63;;;-142.53;100.00
4133;BME280;2080;51.038;7.008;2023-02-25T05:03:28;76409.69;;;-142.53;100.00
4133;BME280;2080;51.038;7.008;2023-02-25T05:05:54;76399.97;;;-142.53;100.00
4133;BME280;2080;51.038;7.008;2023-02-25T05:08:21;76401.91;;;-142.53;100.00
4133;BME280;2080;51.038;7.008;2023-02-25T05:10:46;76413.56;;;-142.53;100.00
4133;BME280;2080;51.038;7.008;2023-02-25T05:13:14;76409.69;;;-142.53;100.00
4133;BME280;2080;51.038;7.008;2023-02-25T05:15:40;76407.75;;;-142.53;100.00
4133;BME280;2080;51.038;7.008;2023-02-25T05:18:05;76394.16;;;-142.53;100.00
4133;BME280;2080;51.038;7.008;2023-02-25T05:20:31;76390.28;;;-142.53;100.00
4133;BME280;2080;51.038;7.008;2023-02-25T05:22:56;76380.56;;;-142.53;100.00
4133;BME280;2080;51.038;7.008;2023-02-25T05:25:22;76386.38;;;-142.53;100.00
4133;BME280;2080;51.038;7.008;2023-02-25T05:27:47;76382.50;;;-142.53;100.00
4133;BME280;2080;51.038;7.008;2023-02-25T05:30:13;76390.28;;;-142.53;100.00
4133;BME280;2080;51.038;7.008;2023-02-25T05:32:39;76386.38;;;-142.53;100.00
4133;BME280;2080;51.038;7.008;2023-02-25T05:35:06;76390.28;;;-142.53;100.00
4133;BME280;2080;51.038;7.008;2023-02-25T05:37:37;76390.28;;;-142.53;100.00
4133;BME280;2080;51.038;7.008;2023-02-25T05:40:03;76394.16;;;-142.53;100.00
4133;BME280;2080;51.038;7.008;2023-02-25T05:42:33;76398.03;;;-142.53;100.00
4133;BME280;2080;51.038;7.008;2023-02-25T05:45:01;76384.44;;;-142.53;100.00
4133;BME280;2080;51.038;7.008;2023-02-25T05:47:27;76401.91;;;-142.53;100.00
4133;BME280;2080;51.038;7.008;2023-02-25T05:49:52;76392.22;;;-142.53;100.00
4133;BME280;2080;51.038;7.008;2023-02-25T05:52:20;76401.91;;;-142.53;100.00
4133;BME280;2080;51.038;7.008;2023-02-25T05:54:45;76398.03;;;-142.53;100.00
4133;BME280;2080;51.038;7.008;2023-02-25T05:57:13;76388.31;;;-142.53;100.00
4133;BME280;2080;51.038;7.008;2023-02-25T05:59:41;76405.81;;;-142.53;100.00
4133;BME280;2080;51.038;7.008;2023-02-25T06:02:09;76394.16;;;-142.53;100.00
4133;BME280;2080;51.038;7.008;2023-02-25T06:04:34;76394.16;;;-142.53;100.00
4133;BME280;2080;51.038;7.008;2023-02-25T06:07:00;76394.16;;;-142.53;100.00
4133;BME280;2080;51.038;7.008;2023-02-25T06:09:27;76409.69;;;-142.53;100.00
4133;BME280;2080;51.038;7.008;2023-02-25T06:11:53;76423.28;;;-142.53;100.00
4133;BME280;2080;51.038;7.008;2023-02-25T06:14:21;76417.47;;;-142.53;100.00
4133;BME280;2080;51.038;7.008;2023-02-25T06:16:47;76427.16;;;-142.53;100.00
4133;BME280;2080;51.038;7.008;2023-02-25T06:19:13;76425.22;;;-142.53;100.00
4133;BME280;2080;51.038;7.008;2023-02-25T06:21:38;76436.88;;;-142.53;100.00
4133;BME280;2080;51.038;7.008;2023-02-25T06:24:07;76427.16;;;-142.53;100.00
4133;BME280;2080;51.038;7.008;2023-02-25T06:26:32;76413.56;;;-142.53;100.00
4133;BME280;2080;51.038;7.008;2023-02-25T06:28:59;76409.69;;;-142.53;100.00
4133;BME280;2080;51.038;7.008;2023-02-25T06:31:26;76398.03;;;-142.53;100.00
4133;BME280;2080;51.038;7.008;2023-02-25T06:33:55;76417.47;;;-142.53;100.00
4133;BME280;2080;51.038;7.008;2023-02-25T06:36:21;76425.22;;;-142.53;100.00
4133;BME280;2080;51.038;7.008;2023-02-25T06:38:46;76444.66;;;-142.53;100.00
4133;BME280;2080;51.038;7.008;2023-02-25T06:41:15;76450.47;;;-142.53;100.00
4133;BME280;2080;51.038;7.008;2023-02-25T06:43:44;76436.88;;;-142.53;100.00
4133;BME280;2080;51.038;7.008;2023-02-25T06:46:13;76425.22;;;-142.53;100.00
4133;BME280;2080;51.038;7.008;2023-02-25T06:48:41;76425.22;;;-142.53;100.00
4133;BME280;2080;51.038;7.008;2023-02-25T06:51:08;76429.13;;;-142.53;100.00
4133;BME280;2080;51.038;7.008;2023-02-25T06:53:37;76440.78;;;-142.53;100.00
4133;BME280;2080;51.038;7.008;2023-02-25T06:56:03;76444.66;;;-142.53;100.00
4133;BME280;2080;51.038;7.008;2023-02-25T06:58:29;76440.78;;;-142.53;100.00
4133;BME280;2080;51.038;7.008;2023-02-25T07:00:59;76429.13;;;-142.53;100.00
4133;BME280;2080;51.038;7.008;2023-02-25T07:03:25;76440.78;;;-142.53;100.00
4133;BME280;2080;51.038;7.008;2023-02-25T07:05:51;76444.66;;;-142.53;100.00
4133;BME280;2080;51.038;7.008;2023-02-25T07:08:19;76433.00;;;-142.53;100.00
4133;BME280;2080;51.038;7.008;2023-02-25T07:10:44;76444.66;;;-142.53;100.00
4133;BME280;2080;51.038;7.008;2023-02-25T07:13:15;76436.88;;;-142.53;100.00
4133;BME280;2080;51.038;7.008;2023-02-25T07:15:41;76433.00;;;-142.53;100.00
4133;BME280;2080;51.038;7.008;2023-02-25T07:18:09;76417.47;;;-142.53;100.00
4133;BME280;2080;51.038;7.008;2023-02-25T07:20:37;76409.69;;;-142.53;100.00
4133;BME280;2080;51.038;7.008;2023-02-25T07:23:04;76417.47;;;-142.53;100.00
4133;BME280;2080;51.038;7.008;2023-02-25T07:25:30;76425.22;;;-142.53;100.00
4133;BME280;2080;51.038;7.008;2023-02-25T07:27:55;76425.22;;;-142.53;100.00
4133;BME280;2080;51.038;7.008;2023-02-25T07:30:20;76431.06;;;-142.53;100.00
4133;BME280;2080;51.038;7.008;2023-02-25T07:32:46;76436.88;;;-142.53;100.00
4133;BME280;2080;51.038;7.008;2023-02-25T07:35:14;76398.03;;;-142.53;100.00
4133;BME280;2080;51.038;7.008;2023-02-25T07:37:39;76386.38;;;-142.53;100.00
4133;BME280;2080;51.038;7.008;2023-02-25T07:40:06;76386.38;;;-142.53;100.00
4133;BME280;2080;51.038;7.008;2023-02-25T07:42:41;76390.28;;;-142.53;100.00
4133;BME280;2080;51.038;7.008;2023-02-25T07:45:09;76368.91;;;-142.53;100.00
4133;BME280;2080;51.038;7.008;2023-02-25T07:47:35;76374.72;;;-142.53;100.00
4133;BME280;2080;51.038;7.008;2023-02-25T07:50:01;76372.78;;;-142.53;100.00
4133;BME280;2080;51.038;7.008;2023-02-25T07:52:27;76366.97;;;-142.53;100.00
4133;BME280;2080;51.038;7.008;2023-02-25T07:54:53;76363.06;;;-142.53;100.00
4133;BME280;2080;51.038;7.008;2023-02-25T07:57:18;76351.41;;;-142.53;100.00
4133;BME280;2080;51.038;7.008;2023-02-25T07:59:43;76359.19;;;-142.53;100.00
4133;BME280;2080;51.038;7.008;2023-02-25T08:02:10;76341.72;;;-142.53;100.00
4133;BME280;2080;51.038;7.008;2023-02-25T08:04:36;76332.00;;;-142.53;100.00
4133;BME280;2080;51.038;7.008;2023-02-25T08:07:01;76332.00;;;-142.53;100.00
4133;BME280;2080;51.038;7.008;2023-02-25T08:09:27;76332.00;;;-142.53;100.00
4133;BME280;2080;51.038;7.008;2023-02-25T08:11:55;76328.13;;;-142.53;100.00
4133;BME280;2080;51.038;7.008;2023-02-25T08:14:23;76322.28;;;-142.53;100.00
4133;BME280;2080;51.038;7.008;2023-02-25T08:16:55;76300.91;;;-142.53;100.00
4133;BME280;2080;51.038;7.008;2023-02-25T08:19:20;76265.97;;;-142.53;100.00
4133;BME280;2080;51.038;7.008;2023-02-25T08:21:45;76269.84;;;-142.53;100.00
4133;BME280;2080;51.038;7.008;2023-02-25T08:24:11;76262.06;;;-142.53;100.00
4133;BME280;2080;51.038;7.008;2023-02-25T08:26:37;76256.25;;;-142.53;100.00
4133;BME280;2080;51.038;7.008;2023-02-25T08:29:02;76271.78;;;-142.53;100.00
4133;BME280;2080;51.038;7.008;2023-02-25T08:31:28;76281.50;;;-142.53;100.00
4133;BME280;2080;51.038;7.008;2023-02-25T08:33:56;76316.47;;;-142.53;100.00
4133;BME280;2080;51.038;7.008;2023-02-25T08:36:26;76374.72;;;-142.53;100.00
4133;BME280;2080;51.038;7.008;2023-02-25T08:38:56;76398.03;;;-142.53;100.00
4133;BME280;2080;51.038;7.008;2023-02-25T08:41:23;76403.88;;;-142.53;100.00
4133;BME280;2080;51.038;7.008;2023-02-25T08:43:51;76419.41;;;-142.53;100.00
4133;BME280;2080;51.038;7.008;2023-02-25T08:46:18;76429.13;;;-142.53;100.00
4133;BME280;2080;51.038;7.008;2023-02-25T08:48:48;76436.88;;;-142.53;100.00
4133;BME280;2080;51.038;7.008;2023-02-25T08:51:13;76436.88;;;-142.53;100.00
4133;BME280;2080;51.038;7.008;2023-02-25T08:53:40;76431.06;;;-142.53;100.00
4133;BME280;2080;51.038;7.008;2023-02-25T08:56:10;76415.53;;;-142.53;100.00
4133;BME280;2080;51.038;7.008;2023-02-25T08:58:36;76405.81;;;-142.53;100.00
4133;BME280;2080;51.038;7.008;2023-02-25T09:01:09;76366.97;;;-142.53;100.00
4133;BME280;2080;51.038;7.008;2023-02-25T09:03:42;76347.53;;;-142.53;100.00
4133;BME280;2080;51.038;7.008;2023-02-25T09:06:26;76343.66;;;-142.53;100.00
4133;BME280;2080;51.038;7.008;2023-02-25T09:08:54;76363.06;;;-142.53;100.00
4133;BME280;2080;51.038;7.008;2023-02-25T09:11:21;76374.72;;;-142.53;100.00
4133;BME280;2080;51.038;7.008;2023-02-25T09:13:47;76390.28;;;-142.53;100.00
4133;BME280;2080;51.038;7.008;2023-02-25T09:16:12;76398.03;;;-142.53;100.00
4133;BME280;2080;51.038;7.008;2023-02-25T09:18:43;76405.81;;;-142.53;100.00
4133;BME280;2080;51.038;7.008;2023-02-25T09:21:11;76386.38;;;-142.53;100.00
4133;BME280;2080;51.038;7.008;2023-02-25T09:23:39;76405.81;;;-142.53;100.00
4133;BME280;2080;51.038;7.008;2023-02-25T09:26:11;76423.28;;;-142.53;100.00
4133;BME280;2080;51.038;7.008;2023-02-25T09:28:39;76413.56;;;-142.53;100.00
4133;BME280;2080;51.038;7.008;2023-02-25T09:31:07;76413.56;;;-142.53;100.00
4133;BME280;2080;51.038;7.008;2023-02-25T09:33:34;76409.69;;;-142.53;100.00
4133;BME280;2080;51.038;7.008;2023-02-25T09:36:11;76382.50;;;-142.53;100.00
4133;BME280;2080;51.038;7.008;2023-02-25T09:38:38;76380.56;;;-142.53;100.00
4133;BME280;2080;51.038;7.008;2023-02-25T09:42:00;76349.47;;;-142.53;100.00
4133;BME280;2080;51.038;7.008;2023-02-25T09:46:30;76277.63;;;-142.53;100.00
4133;BME280;2080;51.038;7.008;2023-02-25T09:49:19;76258.19;;;-142.53;100.00
4133;BME280;2080;51.038;7.008;2023-02-25T09:51:51;76258.19;;;-142.53;100.00
4133;BME280;2080;51.038;7.008;2023-02-25T09:54:31;76234.88;;;-142.53;100.00
4133;BME280;2080;51.038;7.008;2023-02-25T09:57:02;76211.56;;;-142.53;100.00
4133;BME280;2080;51.038;7.008;2023-02-25T09:59:31;76207.69;;;-142.53;100.00
4133;BME280;2080;51.038;7.008;2023-02-25T10:05:39;76258.19;;;-142.53;100.00
4133;BME280;2080;51.038;7.008;2023-02-25T10:11:06;76273.72;;;-142.53;100.00
4133;BME280;2080;51.038;7.008;2023-02-25T10:13:48;76172.72;;;-142.53;100.00
4133;BME280;2080;51.038;7.008;2023-02-25T10:19:34;76168.84;;;-142.53;97.90
4133;BME280;2080;51.038;7.008;2023-02-25T10:25:16;76157.19;;;-142.53;98.63
4133;BME280;2080;51.038;7.008;2023-02-25T10:27:59;76201.88;;;-142.53;99.93
4133;BME280;2080;51.038;7.008;2023-02-25T10:31:02;76227.13;;;-142.53;100.00
4133;BME280;2080;51.038;7.008;2023-02-25T10:33:33;76207.69;;;-142.53;99.74
4133;BME280;2080;51.038;7.008;2023-02-25T10:38:34;76267.91;;;-142.53;100.00
4133;BME280;2080;51.038;7.008;2023-02-25T10:41:04;76281.50;;;-142.53;100.00
4133;BME280;2080;51.038;7.008;2023-02-25T10:43:33;76324.22;;;-142.53;100.00
4133;BME280;2080;51.038;7.008;2023-02-25T10:48:34;76366.97;;;-142.53;100.00
4133;BME280;2080;51.038;7.008;2023-02-25T10:51:14;76475.72;;;-142.53;100.00
4133;BME280;2080;51.038;7.008;2023-02-25T10:56:18;76677.75;;;-142.53;100.00
4133;BME280;2080;51.038;7.008;2023-02-25T10:59:02;76681.63;;;-142.53;100.00
4133;BME280;2080;51.038;7.008;2023-02-25T11:01:39;76646.66;;;-142.53;100.00
4133;BME280;2080;51.038;7.008;2023-02-25T11:04:10;76609.75;;;-142.53;100.00
4133;BME280;2080;51.038;7.008;2023-02-25T11:06:39;76623.34;;;-142.53;100.00
4133;BME280;2080;51.038;7.008;2023-02-25T11:09:29;76576.72;;;-142.53;100.00
4133;BME280;2080;51.038;7.008;2023-02-25T11:12:14;76557.31;;;-142.53;100.00
4133;BME280;2080;51.038;7.008;2023-02-25T11:14:42;76553.44;;;-142.53;100.00
4133;BME280;2080;51.038;7.008;2023-02-25T11:17:15;76530.13;;;-142.53;100.00
4133;BME280;2080;51.038;7.008;2023-02-25T11:20:01;76526.22;;;-142.53;100.00
4133;BME280;2080;51.038;7.008;2023-02-25T11:22:36;76489.31;;;-142.53;100.00
4133;BME280;2080;51.038;7.008;2023-02-25T11:25:13;76493.22;;;-142.53;100.00
4133;BME280;2080;51.038;7.008;2023-02-25T11:27:50;76508.75;;;-142.53;100.00
4133;BME280;2080;51.038;7.008;2023-02-25T11:30:23;76514.56;;;-142.53;100.00
4133;BME280;2080;51.038;7.008;2023-02-25T11:32:57;76514.56;;;-142.53;100.00
4133;BME280;2080;51.038;7.008;2023-02-25T11:35:28;76495.16;;;-142.53;100.00
4133;BME280;2080;51.038;7.008;2023-02-25T11:37:58;76471.84;;;-142.53;100.00
4133;BME280;2080;51.038;7.008;2023-02-25T11:40:44;76502.91;;;-142.53;100.00
4133;BME280;2080;51.038;7.008;2023-02-25T11:43:21;76483.50;;;-142.53;100.00
4133;BME280;2080;51.038;7.008;2023-02-25T11:45:56;76436.88;;;-142.53;100.00
4133;BME280;2080;51.038;7.008;2023-02-25T12:15:36;76314.50;;;-142.53;91.94
4133;BME280;2080;51.038;7.008;2023-02-25T12:43:51;76343.66;;;-142.53;90.83
4133;BME280;2080;51.038;7.008;2023-02-25T12:52:05;76234.88;;;-142.53;77.83
4133;BME280;2080;51.038;7.008;2023-02-25T12:57:44;76363.06;;;-142.53;88.91
4133;BME280;2080;51.038;7.008;2023-02-25T13:12:17;76728.25;;;-142.53;100.00
4133;BME280;2080;51.038;7.008;2023-02-25T13:14:24;76689.41;;;-142.53;100.00
4133;BME280;2080;51.038;7.008;2023-02-25T13:25:49;76662.19;;;-142.53;100.00
4133;BME280;2080;51.038;7.008;2023-02-25T13:34:17;76541.78;;;-142.53;91.67
4133;BME280;2080;51.038;7.008;2023-02-25T13:37:19;76477.66;;;-142.53;85.68
4133;BME280;2080;51.038;7.008;2023-02-25T13:42:44;76448.53;;;-142.53;78.56
4133;BME280;2080;51.038;7.008;2023-02-25T13:50:50;76370.84;;;-142.53;77.15
4133;BME280;2080;51.038;7.008;2023-02-25T13:56:26;76409.69;;;-142.53;73.59
4133;BME280;2080;51.038;7.008;2023-02-25T13:59:17;76433.00;;;-142.53;70.56
4133;BME280;2080;51.038;7.008;2023-02-25T14:04:59;76454.38;;;-142.53;64.76
4133;BME280;2080;51.038;7.008;2023-02-25T14:08:20;76425.22;;;-142.53;73.33
4133;BME280;2080;51.038;7.008;2023-02-25T14:32:48;76398.03;;;-142.53;48.77
4133;BME280;2080;51.038;7.008;2023-02-25T14:40:33;76413.56;;;-142.53;45.12
4133;BME280;2080;51.038;7.008;2023-02-25T14:46:14;76444.66;;;-142.53;44.57
4133;BME280;2080;51.038;7.008;2023-02-25T15:08:50;76483.50;;;-142.53;42.08
4133;BME280;2080;51.038;7.008;2023-02-25T15:11:43;76504.88;;;-142.53;42.37
4133;BME280;2080;51.038;7.008;2023-02-25T15:41:42;76510.69;;;-142.53;43.40
4133;BME280;2080;51.038;7.008;2023-02-25T15:46:43;76534.00;;;-142.53;45.14
4133;BME280;2080;51.038;7.008;2023-02-25T15:49:30;76522.34;;;-142.53;43.99
4133;BME280;2080;51.038;7.008;2023-02-25T15:51:57;76526.22;;;-142.53;44.36
4133;BME280;2080;51.038;7.008;2023-02-25T15:56:55;76499.03;;;-142.53;43.67
4133;BME280;2080;51.038;7.008;2023-02-25T15:59:49;76553.44;;;-142.53;43.46
4133;BME280;2080;51.038;7.008;2023-02-25T16:04:59;76596.16;;;-142.53;42.59
4133;BME280;2080;51.038;7.008;2023-02-25T16:07:34;76611.69;;;-142.53;41.98
4133;BME280;2080;51.038;7.008;2023-02-25T16:10:24;76611.69;;;-142.53;41.90
4133;BME280;2080;51.038;7.008;2023-02-25T16:12:54;76615.59;;;-142.53;41.83
4133;BME280;2080;51.038;7.008;2023-02-25T16:15:38;76611.69;;;-142.53;42.64
4133;BME280;2080;51.038;7.008;2023-02-25T16:18:34;76635.00;;;-142.53;42.17
4133;BME280;2080;51.038;7.008;2023-02-25T16:21:04;76648.59;;;-142.53;41.74
4133;BME280;2080;51.038;7.008;2023-02-25T16:23:38;76658.31;;;-142.53;42.50
4133;BME280;2080;51.038;7.008;2023-02-25T16:31:20;76701.06;;;-142.53;41.13
4133;BME280;2080;51.038;7.008;2023-02-25T16:39:36;76693.28;;;-142.53;40.72
4133;BME280;2080;51.038;7.008;2023-02-25T16:42:09;76728.25;;;-142.53;40.57
4133;BME280;2080;51.038;7.008;2023-02-25T16:44:38;76739.91;;;-142.53;41.27
4133;BME280;2080;51.038;7.008;2023-02-25T16:47:21;76751.56;;;-142.53;42.35
4133;BME280;2080;51.038;7.008;2023-02-25T16:49:48;76767.09;;;-142.53;41.27
4133;BME280;2080;51.038;7.008;2023-02-25T16:52:24;76778.75;;;-142.53;41.00
4133;BME280;2080;51.038;7.008;2023-02-25T16:54:56;76790.41;;;-142.53;40.64
4133;BME280;2080;51.038;7.008;2023-02-25T16:57:24;76804.00;;;-142.53;40.78
4133;BME280;2080;51.038;7.008;2023-02-25T16:59:50;76823.44;;;-142.53;40.61
4133;BME280;2080;51.038;7.008;2023-02-25T17:02:43;76829.25;;;-142.53;41.08
4133;BME280;2080;51.038;7.008;2023-02-25T17:05:21;76848.69;;;-142.53;41.32
4133;BME280;2080;51.038;7.008;2023-02-25T17:07:54;76856.47;;;-142.53;41.81
4133;BME280;2080;51.038;7.008;2023-02-25T17:10:27;76864.22;;;-142.53;41.86
4133;BME280;2080;51.038;7.008;2023-02-25T17:12:53;76879.78;;;-142.53;43.73
4133;BME280;2080;51.038;7.008;2023-02-25T17:15:25;76883.66;;;-142.53;42.82